createdAt,value
2018-09-26T00:00:53.912Z,88.53
2018-09-26T00:01:54.165Z,88.71
2018-09-26T00:02:53.885Z,88.34
2018-09-26T00:03:53.884Z,88.05
2018-09-26T00:04:54.122Z,88.05
2018-09-26T00:05:53.863Z,88.39
2018-09-26T00:06:54.115Z,88.24
2018-09-26T00:07:54.107Z,88.43
2018-09-26T00:08:54.106Z,88.76
2018-09-26T00:09:54.106Z,89.14
2018-09-26T00:10:54.093Z,89.53
2018-09-26T00:11:53.830Z,90.19
2018-09-26T00:12:53.856Z,89.95
2018-09-26T00:13:54.069Z,90.23
2018-09-26T00:14:54.077Z,89.95
2018-09-26T00:15:54.062Z,89.57
2018-09-26T00:16:53.799Z,89.67
2018-09-26T00:17:54.045Z,89.67
2018-09-26T00:18:53.784Z,89.38
2018-09-26T00:19:54.033Z,89.19
2018-09-26T00:20:54.027Z,88.81
2018-09-26T00:21:54.046Z,89.28
2018-09-26T00:22:54.040Z,89.38
2018-09-26T00:23:54.018Z,89.47
2018-09-26T00:24:54.011Z,89.57
2018-09-26T00:25:53.995Z,89.09
2018-09-26T00:26:53.741Z,88.81
2018-09-26T00:27:53.731Z,88.9
2018-09-26T00:28:53.982Z,88.9
2018-09-26T00:29:53.969Z,88.76
2018-09-26T00:30:53.981Z,89.62
2018-09-26T00:31:53.955Z,90.19
2018-09-26T00:32:53.697Z,90.09
2018-09-26T00:33:53.953Z,90
2018-09-26T00:34:53.935Z,90
2018-09-26T00:35:54.235Z,90
2018-09-26T00:36:53.683Z,89.72
2018-09-26T00:37:53.921Z,90
2018-09-26T00:38:53.924Z,90.19
2018-09-26T00:39:53.896Z,90.09
2018-09-26T00:40:53.887Z,89.72
2018-09-26T00:41:53.924Z,90.38
2018-09-26T00:42:53.879Z,90
2018-09-26T00:43:53.884Z,90.38
2018-09-26T00:44:53.619Z,90.57
2018-09-26T00:45:53.858Z,90.38
2018-09-26T00:46:53.857Z,90.19
2018-09-26T00:47:53.842Z,90
2018-09-26T00:48:53.849Z,90.57
2018-09-26T00:49:53.576Z,90.19
2018-09-26T00:50:53.845Z,90.38
2018-09-26T00:51:53.817Z,90.28
2018-09-26T00:52:53.811Z,90
2018-09-26T00:53:53.821Z,90.95
2018-09-26T00:54:53.810Z,90.66
2018-09-26T00:55:53.544Z,90.57
2018-09-26T00:56:53.782Z,90.66
2018-09-26T00:57:53.775Z,91.04
2018-09-26T00:58:53.766Z,91.42
2018-09-26T00:59:53.773Z,90.95
2018-09-26T01:00:53.749Z,91.24
2018-09-26T01:01:53.486Z,91.33
2018-09-26T01:02:53.738Z,91.71
2018-09-26T01:03:53.511Z,91.71
2018-09-26T01:04:53.750Z,91.61
2018-09-26T01:05:53.712Z,91.42
2018-09-26T01:06:53.467Z,91.42
2018-09-26T01:07:53.702Z,91.8
2018-09-26T01:08:53.693Z,91.42
2018-09-26T01:09:53.441Z,92.47
2018-09-26T01:10:53.678Z,92.47
2018-09-26T01:11:53.414Z,91.61
2018-09-26T01:12:53.677Z,91.99
2018-09-26T01:13:53.660Z,92.09
2018-09-26T01:14:53.656Z,92.28
2018-09-26T01:15:53.649Z,92.28
2018-09-26T01:16:53.645Z,91.8
2018-09-26T01:17:53.629Z,92.09
2018-09-26T01:18:53.628Z,91.8
2018-09-26T01:19:53.623Z,91.42
2018-09-26T01:20:53.622Z,91.24
2018-09-26T01:21:53.618Z,92.09
2018-09-26T01:22:53.592Z,92.18
2018-09-26T01:23:53.343Z,92.56
2018-09-26T01:24:53.333Z,92.56
2018-09-26T01:25:53.573Z,92.99
2018-09-26T01:26:53.312Z,92.66
2018-09-26T01:27:53.563Z,92.94
2018-09-26T01:28:53.297Z,92.56
2018-09-26T01:29:53.540Z,92.56
2018-09-26T01:30:53.537Z,93.04
2018-09-26T01:31:53.276Z,93.89
2018-09-26T01:32:53.525Z,93.51
2018-09-26T01:33:53.260Z,93.51
2018-09-26T01:34:53.504Z,93.65
2018-09-26T01:35:53.245Z,93.27
2018-09-26T01:36:53.492Z,93.51
2018-09-26T01:37:53.484Z,93.75
2018-09-26T01:38:53.476Z,93.65
2018-09-26T01:39:53.470Z,93.65
2018-09-26T01:40:53.469Z,93.75
2018-09-26T01:41:53.203Z,93.56
2018-09-26T01:42:53.450Z,93.7
2018-09-26T01:43:53.445Z,93.65
2018-09-26T01:44:53.181Z,93.56
2018-09-26T01:45:53.433Z,93.18
2018-09-26T01:46:53.166Z,93.7
2018-09-26T01:47:53.159Z,93.65
2018-09-26T01:48:53.409Z,93.56
2018-09-26T01:49:53.144Z,93.56
2018-09-26T01:50:53.406Z,93.65
2018-09-26T01:51:53.392Z,93.94
2018-09-26T01:52:53.380Z,94.32
2018-09-26T01:53:53.417Z,94.51
2018-09-26T01:54:53.367Z,94.51
2018-09-26T01:55:53.125Z,94.23
2018-09-26T01:56:53.365Z,94.51
2018-09-26T01:57:53.092Z,94.42
2018-09-26T01:58:53.104Z,94.79
2018-09-26T01:59:53.342Z,95.27
2018-09-26T02:00:53.326Z,95.17
2018-09-26T02:01:53.322Z,95.27
2018-09-26T02:02:53.066Z,94.6
2018-09-26T02:03:53.305Z,95.17
2018-09-26T02:04:53.035Z,95.27
2018-09-26T02:05:53.027Z,94.98
2018-09-26T02:06:53.024Z,95.36
2018-09-26T02:07:53.026Z,94.98
2018-09-26T02:08:53.263Z,94.51
2018-09-26T02:09:53.254Z,94.13
2018-09-26T02:10:52.991Z,94.23
2018-09-26T02:11:53.238Z,93.37
2018-09-26T02:12:53.251Z,93.56
2018-09-26T02:13:53.231Z,94.23
2018-09-26T02:14:53.224Z,94.13
2018-09-26T02:15:53.209Z,94.98
2018-09-26T02:16:52.943Z,95.07
2018-09-26T02:17:53.210Z,95.36
2018-09-26T02:18:53.188Z,95.17
2018-09-26T02:19:52.939Z,95.07
2018-09-26T02:20:53.175Z,95.36
2018-09-26T02:21:52.912Z,94.13
2018-09-26T02:22:53.158Z,94.7
2018-09-26T02:23:52.950Z,94.51
2018-09-26T02:24:53.152Z,94.6
2018-09-26T02:25:53.136Z,94.6
2018-09-26T02:26:52.867Z,94.6
2018-09-26T02:27:53.113Z,94.32
2018-09-26T02:28:53.119Z,94.6
2018-09-26T02:29:53.101Z,94.89
2018-09-26T02:30:53.109Z,95.17
2018-09-26T02:31:53.093Z,94.89
2018-09-26T02:32:53.087Z,94.51
2018-09-26T02:33:53.073Z,94.79
2018-09-26T02:34:53.065Z,93.84
2018-09-26T02:35:53.060Z,93.46
2018-09-26T02:36:53.056Z,94.51
2018-09-26T02:37:53.057Z,94.23
2018-09-26T02:38:52.779Z,94.98
2018-09-26T02:39:53.042Z,94.98
2018-09-26T02:40:53.026Z,95.27
2018-09-26T02:41:52.758Z,95.27
2018-09-26T02:42:53.010Z,94.89
2018-09-26T02:43:52.995Z,94.98
2018-09-26T02:44:52.992Z,95.65
2018-09-26T02:45:52.973Z,95.17
2018-09-26T02:46:52.979Z,95.46
2018-09-26T02:47:52.961Z,94.93
2018-09-26T02:48:52.966Z,94.46
2018-09-26T02:49:52.954Z,94.93
2018-09-26T02:50:52.948Z,94.84
2018-09-26T02:51:52.681Z,95.03
2018-09-26T02:52:52.925Z,94.84
2018-09-26T02:53:52.916Z,95.22
2018-09-26T02:54:52.654Z,95.6
2018-09-26T02:55:53.056Z,95.41
2018-09-26T02:56:52.638Z,95.12
2018-09-26T02:57:52.897Z,96.08
2018-09-26T02:58:52.897Z,96.17
2018-09-26T02:59:52.617Z,96.26
2018-09-26T03:00:52.863Z,96.64
2018-09-26T03:01:52.601Z,97.4
2018-09-26T03:02:52.849Z,97.31
2018-09-26T03:03:52.839Z,97.4
2018-09-26T03:04:52.889Z,97.69
2018-09-26T03:05:52.576Z,97.5
2018-09-26T03:06:52.557Z,97.12
2018-09-26T03:07:52.559Z,96.83
2018-09-26T03:08:52.803Z,97.55
2018-09-26T03:09:52.544Z,96.78
2018-09-26T03:10:52.610Z,96.88
2018-09-26T03:11:52.518Z,96.12
2018-09-26T03:12:52.787Z,96.22
2018-09-26T03:13:52.803Z,95.27
2018-09-26T03:14:52.499Z,95.46
2018-09-26T03:15:52.493Z,94.84
2018-09-26T03:16:52.475Z,96.08
2018-09-26T03:17:52.724Z,95.98
2018-09-26T03:18:52.742Z,96.08
2018-09-26T03:19:52.454Z,96.08
2018-09-26T03:20:52.712Z,96.08
2018-09-26T03:21:52.456Z,96.36
2018-09-26T03:22:52.695Z,95.5
2018-09-26T03:23:52.450Z,96.55
2018-09-26T03:24:52.418Z,96.26
2018-09-26T03:25:52.405Z,96.73
2018-09-26T03:26:52.398Z,97.12
2018-09-26T03:27:52.440Z,97.21
2018-09-26T03:28:52.647Z,97.21
2018-09-26T03:29:52.375Z,97.5
2018-09-26T03:30:52.661Z,97.4
2018-09-26T03:31:52.617Z,97.4
2018-09-26T03:32:52.609Z,98.07
2018-09-26T03:33:52.937Z,98.07
2018-09-26T03:34:52.344Z,98.07
2018-09-26T03:35:52.590Z,98.16
2018-09-26T03:36:52.613Z,98.25
2018-09-26T03:37:52.618Z,98.16
2018-09-26T03:38:52.309Z,98.44
2018-09-26T03:39:52.294Z,97.88
2018-09-26T03:40:52.551Z,98.16
2018-09-26T03:41:52.572Z,97.97
2018-09-26T03:42:52.532Z,98.82
2018-09-26T03:43:52.515Z,99.3
2018-09-26T03:44:52.519Z,98.63
2018-09-26T03:45:52.247Z,99.49
2018-09-26T03:46:52.496Z,99.87
2018-09-26T03:47:52.491Z,99.68
2018-09-26T03:48:52.484Z,99.99
2018-09-26T03:49:52.472Z,99.99
2018-09-26T03:50:52.468Z,99.87
2018-09-26T03:51:52.456Z,99.87
2018-09-26T03:52:52.192Z,99.99
2018-09-26T03:53:52.446Z,99.96
2018-09-26T03:54:52.204Z,99.39
2018-09-26T03:55:52.430Z,99.01
2018-09-26T03:56:52.416Z,98.63
2018-09-26T03:57:52.407Z,98.92
2018-09-26T03:58:52.411Z,98.92
2018-09-26T03:59:52.134Z,98.44
2018-09-26T04:00:52.390Z,98.73
2018-09-26T04:01:52.133Z,98.44
2018-09-26T04:02:52.375Z,98.44
2018-09-26T04:03:52.100Z,98.82
2018-09-26T04:04:52.226Z,98.54
2018-09-26T04:05:52.347Z,98.82
2018-09-26T04:06:52.332Z,99.2
2018-09-26T04:07:52.320Z,99.58
2018-09-26T04:08:52.371Z,99.96
2018-09-26T04:09:52.076Z,99.96
2018-09-26T04:10:52.308Z,99.99
2018-09-26T04:11:52.034Z,99.99
2018-09-26T04:12:52.654Z,99.99
2018-09-26T04:13:52.284Z,99.99
2018-09-26T04:14:52.012Z,99.99
2018-09-26T04:15:52.418Z,99.99
2018-09-26T04:16:51.992Z,99.99
2018-09-26T04:17:52.247Z,99.99
2018-09-26T04:18:52.243Z,99.99
2018-09-26T04:19:52.224Z,99.99
2018-09-26T04:20:52.226Z,99.99
2018-09-26T04:21:51.957Z,99.99
2018-09-26T04:22:52.204Z,99.99
2018-09-26T04:23:52.209Z,99.99
2018-09-26T04:24:51.927Z,99.99
2018-09-26T04:25:52.212Z,99.99
2018-09-26T04:26:52.593Z,99.99
2018-09-26T04:27:51.912Z,99.99
2018-09-26T04:28:51.956Z,99.99
2018-09-26T04:29:52.163Z,99.99
2018-09-26T04:30:52.215Z,99.99
2018-09-26T04:31:51.867Z,99.99
2018-09-26T04:32:52.423Z,99.99
2018-09-26T04:33:52.264Z,99.99
2018-09-26T04:34:52.136Z,99.99
2018-09-26T04:35:51.844Z,99.99
2018-09-26T04:36:51.840Z,99.99
2018-09-26T04:37:52.146Z,99.99
2018-09-26T04:38:52.330Z,99.99
2018-09-26T04:39:52.058Z,99.99
2018-09-26T04:40:51.804Z,99.99
2018-09-26T04:41:51.807Z,99.99
2018-09-26T04:42:51.783Z,99.99
2018-09-26T04:43:51.775Z,99.99
2018-09-26T04:44:52.034Z,99.99
2018-09-26T04:45:52.020Z,99.99
2018-09-26T04:46:51.762Z,99.99
2018-09-26T04:47:51.768Z,99.99
2018-09-26T04:48:51.989Z,99.99
2018-09-26T04:49:51.978Z,99.99
2018-09-26T04:50:51.741Z,99.99
2018-09-26T04:51:51.969Z,99.99
2018-09-26T04:52:51.956Z,99.99
2018-09-26T04:53:51.706Z,99.99
2018-09-26T04:54:51.679Z,99.99
2018-09-26T04:55:51.931Z,99.99
2018-09-26T04:56:51.661Z,99.99
2018-09-26T04:57:52.086Z,99.99
2018-09-26T04:58:51.904Z,99.99
2018-09-26T04:59:51.943Z,99.99
2018-09-26T05:00:51.661Z,99.99
2018-09-26T05:01:51.888Z,99.99
2018-09-26T05:02:51.871Z,99.99
2018-09-26T05:03:51.606Z,99.99
2018-09-26T05:04:51.849Z,99.99
2018-09-26T05:05:51.848Z,99.99
2018-09-26T05:06:51.580Z,99.99
2018-09-26T05:07:51.573Z,99.99
2018-09-26T05:08:51.645Z,99.99
2018-09-26T05:09:51.557Z,99.99
2018-09-26T05:10:51.802Z,99.99
2018-09-26T05:11:51.803Z,99.99
2018-09-26T05:12:51.532Z,99.99
2018-09-26T05:13:51.794Z,99.99
2018-09-26T05:14:51.968Z,99.99
2018-09-26T05:15:51.507Z,99.99
2018-09-26T05:16:51.507Z,99.99
2018-09-26T05:17:51.486Z,99.99
2018-09-26T05:18:51.752Z,99.99
2018-09-26T05:19:51.743Z,99.99
2018-09-26T05:20:51.472Z,99.99
2018-09-26T05:21:51.714Z,99.99
2018-09-26T05:22:51.525Z,99.99
2018-09-26T05:23:51.454Z,99.99
2018-09-26T05:24:51.436Z,99.99
2018-09-26T05:25:51.681Z,99.99
2018-09-26T05:26:51.670Z,99.99
2018-09-26T05:27:51.409Z,99.99
2018-09-26T05:28:51.395Z,99.99
2018-09-26T05:29:51.411Z,99.99
2018-09-26T05:30:51.657Z,99.99
2018-09-26T05:31:51.372Z,99.99
2018-09-26T05:32:51.368Z,99.99
2018-09-26T05:33:51.363Z,99.99
2018-09-26T05:34:51.602Z,99.99
2018-09-26T05:35:51.338Z,99.99
2018-09-26T05:36:51.583Z,99.99
2018-09-26T05:37:51.580Z,99.99
2018-09-26T05:38:51.575Z,99.99
2018-09-26T05:39:51.556Z,99.99
2018-09-26T05:40:51.316Z,99.99
2018-09-26T05:41:51.730Z,99.99
2018-09-26T05:42:51.280Z,99.99
2018-09-26T05:43:51.544Z,99.99
2018-09-26T05:44:51.563Z,99.99
2018-09-26T05:45:51.259Z,99.99
2018-09-26T05:46:51.505Z,99.99
2018-09-26T05:47:51.242Z,99.99
2018-09-26T05:48:51.235Z,99.99
2018-09-26T05:49:51.484Z,99.99
2018-09-26T05:50:51.224Z,99.99
2018-09-26T05:51:51.468Z,99.99
2018-09-26T05:52:51.472Z,99.99
2018-09-26T05:53:51.458Z,99.99
2018-09-26T05:54:51.444Z,99.99
2018-09-26T05:55:51.442Z,99.99
2018-09-26T05:56:51.432Z,99.99
2018-09-26T05:57:51.473Z,99.99
2018-09-26T05:58:51.411Z,99.99
2018-09-26T05:59:51.409Z,99.99
2018-09-26T06:00:51.409Z,99.99
2018-09-26T06:01:51.135Z,99.99
2018-09-26T06:02:51.132Z,99.99
2018-09-26T06:03:51.125Z,99.99
2018-09-26T06:04:51.365Z,99.99
2018-09-26T06:05:51.377Z,99.99
2018-09-26T06:06:51.380Z,99.99
2018-09-26T06:07:51.365Z,99.99
2018-09-26T06:08:51.334Z,99.99
2018-09-26T06:09:51.082Z,99.99
2018-09-26T06:10:51.089Z,99.99
2018-09-26T06:11:51.341Z,99.99
2018-09-26T06:12:51.399Z,99.99
2018-09-26T06:13:51.045Z,99.49
2018-09-26T06:14:51.298Z,98.92
2018-09-26T06:15:51.045Z,98.64
2018-09-26T06:16:51.278Z,98.16
2018-09-26T06:17:51.265Z,97.78
2018-09-26T06:18:51.348Z,98.16
2018-09-26T06:19:51.267Z,98.35
2018-09-26T06:20:51.252Z,97.88
2018-09-26T06:21:51.248Z,98.45
2018-09-26T06:22:50.977Z,97.78
2018-09-26T06:23:51.229Z,97.31
2018-09-26T06:24:51.030Z,97.6
2018-09-26T06:25:51.223Z,97.12
2018-09-26T06:26:51.221Z,97.31
2018-09-26T06:27:51.210Z,97.78
2018-09-26T06:28:51.192Z,96.88
2018-09-26T06:29:51.183Z,95.36
2018-09-26T06:30:51.175Z,95.17
2018-09-26T06:31:51.173Z,95.08
2018-09-26T06:32:51.162Z,94.98
2018-09-26T06:33:51.170Z,94.79
2018-09-26T06:34:51.200Z,94.13
2018-09-26T06:35:51.147Z,93.08
2018-09-26T06:36:50.884Z,92.32
2018-09-26T06:37:50.874Z,91.8
2018-09-26T06:38:51.121Z,90.75
2018-09-26T06:39:51.129Z,90.47
2018-09-26T06:40:51.122Z,89.23
2018-09-26T06:41:51.106Z,88.19
2018-09-26T06:42:51.123Z,86.57
2018-09-26T06:43:51.102Z,86.1
2018-09-26T06:44:50.836Z,86
2018-09-26T06:45:51.085Z,85.62
2018-09-26T06:46:50.822Z,86
2018-09-26T06:47:51.081Z,85.24
2018-09-26T06:48:51.079Z,85.53
2018-09-26T06:49:51.077Z,84.33
2018-09-26T06:50:50.804Z,83.67
2018-09-26T06:51:51.057Z,83.58
2018-09-26T06:52:51.053Z,83.76
2018-09-26T06:53:50.816Z,83.48
2018-09-26T06:54:51.047Z,83.67
2018-09-26T06:55:51.029Z,83.48
2018-09-26T06:56:51.029Z,84.05
2018-09-26T06:57:51.076Z,82.95
2018-09-26T06:58:50.753Z,81.18
2018-09-26T06:59:50.754Z,77.09
2018-09-26T07:00:50.752Z,74.02
2018-09-26T07:01:51.001Z,70.15
2018-09-26T07:02:50.997Z,67.33
2018-09-26T07:03:50.993Z,64.88
2018-09-26T07:04:50.990Z,62.55
2018-09-26T07:05:50.986Z,60.3
2018-09-26T07:06:50.980Z,58.03
2018-09-26T07:07:50.985Z,55.47
2018-09-26T07:08:50.725Z,53.42
2018-09-26T07:09:50.980Z,51.82
2018-09-26T07:10:50.979Z,50.58
2018-09-26T07:11:50.723Z,49.93
2018-09-26T07:12:50.984Z,47.92
2018-09-26T07:13:50.716Z,48.3
2018-09-26T07:14:50.723Z,49.16
2018-09-26T07:15:50.977Z,49.24
2018-09-26T07:16:50.984Z,50.2
2018-09-26T07:17:50.981Z,49.91
2018-09-26T07:18:50.979Z,49.43
2018-09-26T07:19:50.983Z,50
2018-09-26T07:20:50.982Z,50.48
2018-09-26T07:21:50.982Z,50.56
2018-09-26T07:22:50.989Z,50.2
2018-09-26T07:23:51.054Z,49.84
2018-09-26T07:24:50.733Z,48.11
2018-09-26T07:25:50.733Z,48.59
2018-09-26T07:26:50.986Z,49.16
2018-09-26T07:27:50.748Z,49.43
2018-09-26T07:28:50.993Z,48.88
2018-09-26T07:29:51.012Z,48.3
2018-09-26T07:30:50.996Z,47.46
2018-09-26T07:31:50.742Z,47.46
2018-09-26T07:32:50.761Z,47.56
2018-09-26T07:33:50.753Z,47.66
2018-09-26T07:34:52.353Z,46.05
2018-09-26T07:35:51.017Z,45.76
2018-09-26T07:36:51.017Z,44.63
2018-09-26T07:37:51.017Z,42.73
2018-09-26T07:38:51.025Z,42.47
2018-09-26T07:39:50.763Z,42.73
2018-09-26T07:40:51.017Z,43.21
2018-09-26T07:41:51.025Z,43.19
2018-09-26T07:42:51.023Z,43
2018-09-26T07:43:51.031Z,43.67
2018-09-26T07:44:50.779Z,44.23
2018-09-26T07:45:50.837Z,44.8
2018-09-26T07:46:50.777Z,44.42
2018-09-26T07:47:50.782Z,45.07
2018-09-26T07:48:51.041Z,45.83
2018-09-26T07:49:51.040Z,47.73
2018-09-26T07:50:51.058Z,49.79
2018-09-26T07:51:51.049Z,50.84
2018-09-26T07:52:50.793Z,51.1
2018-09-26T07:53:51.053Z,50.56
2018-09-26T07:54:51.055Z,50.07
2018-09-26T07:55:51.057Z,49.5
2018-09-26T07:56:50.802Z,48.28
2018-09-26T07:57:51.064Z,48.95
2018-09-26T07:58:51.060Z,48.38
2018-09-26T07:59:51.122Z,48.75
2018-09-26T08:00:50.811Z,49.05
2018-09-26T08:01:51.079Z,48.85
2018-09-26T08:02:51.079Z,48.09
2018-09-26T08:03:51.063Z,47.89
2018-09-26T08:04:51.077Z,46.19
2018-09-26T08:05:51.116Z,46.77
2018-09-26T08:06:50.840Z,47.51
2018-09-26T08:07:50.825Z,49.6
2018-09-26T08:08:50.816Z,50.07
2018-09-26T08:09:51.097Z,50.52
2018-09-26T08:10:51.109Z,51.97
2018-09-26T08:11:51.320Z,52.32
2018-09-26T08:12:51.087Z,52.89
2018-09-26T08:13:50.844Z,53.75
2018-09-26T08:14:51.106Z,54.04
2018-09-26T08:15:51.117Z,54.39
2018-09-26T08:16:50.845Z,54.11
2018-09-26T08:17:50.863Z,53.25
2018-09-26T08:18:50.850Z,53.06
2018-09-26T08:19:51.115Z,53.53
2018-09-26T08:20:51.107Z,54.37
2018-09-26T08:21:51.107Z,54.56
2018-09-26T08:22:50.855Z,54.56
2018-09-26T08:23:51.011Z,55.23
2018-09-26T08:24:51.114Z,56.57
2018-09-26T08:25:51.109Z,55.8
2018-09-26T08:26:51.154Z,54.56
2018-09-26T08:27:51.122Z,55.52
2018-09-26T08:28:51.108Z,54.18
2018-09-26T08:29:51.291Z,54.27
2018-09-26T08:30:51.110Z,55.52
2018-09-26T08:31:51.116Z,55.52
2018-09-26T08:32:51.179Z,55.23
2018-09-26T08:33:51.114Z,53.89
2018-09-26T08:34:51.114Z,53.7
2018-09-26T08:35:51.112Z,55.52
2018-09-26T08:36:50.850Z,55.52
2018-09-26T08:37:51.103Z,56.54
2018-09-26T08:38:51.120Z,56.63
2018-09-26T08:39:51.159Z,57.02
2018-09-26T08:40:51.108Z,56.28
2018-09-26T08:41:50.859Z,56.67
2018-09-26T08:42:50.853Z,55.8
2018-09-26T08:43:51.204Z,56.28
2018-09-26T08:44:51.112Z,55.8
2018-09-26T08:45:50.853Z,56.09
2018-09-26T08:46:51.103Z,55.99
2018-09-26T08:47:51.103Z,55.99
2018-09-26T08:48:50.863Z,55.8
2018-09-26T08:49:51.107Z,54.59
2018-09-26T08:50:51.107Z,54.68
2018-09-26T08:51:50.844Z,55.26
2018-09-26T08:52:51.104Z,54.68
2018-09-26T08:53:51.263Z,55.16
2018-09-26T08:54:50.837Z,55.99
2018-09-26T08:55:51.107Z,54.85
2018-09-26T08:56:51.090Z,54.85
2018-09-26T08:57:51.117Z,55.71
2018-09-26T08:58:50.845Z,55.99
2018-09-26T08:59:51.340Z,55.71
2018-09-26T09:00:51.089Z,55.13
2018-09-26T09:01:51.084Z,55.99
2018-09-26T09:02:50.841Z,56.38
2018-09-26T09:03:51.078Z,55.9
2018-09-26T09:04:50.838Z,55.61
2018-09-26T09:05:51.085Z,55.71
2018-09-26T09:06:50.822Z,55.13
2018-09-26T09:07:51.082Z,56.38
2018-09-26T09:08:51.083Z,55.99
2018-09-26T09:09:51.121Z,55.99
2018-09-26T09:10:51.072Z,55.9
2018-09-26T09:11:50.812Z,56.18
2018-09-26T09:12:51.078Z,55.99
2018-09-26T09:13:51.077Z,56.85
2018-09-26T09:14:51.611Z,56.67
2018-09-26T09:15:50.804Z,56.95
2018-09-26T09:16:51.072Z,56.09
2018-09-26T09:17:50.940Z,55.8
2018-09-26T09:18:51.060Z,56.47
2018-09-26T09:19:51.057Z,55.99
2018-09-26T09:20:51.059Z,55.04
2018-09-26T09:21:51.128Z,54.85
2018-09-26T09:22:50.807Z,54.94
2018-09-26T09:23:50.808Z,55.04
2018-09-26T09:24:50.795Z,55.13
2018-09-26T09:25:50.796Z,55.71
2018-09-26T09:27:25.949Z,55.71
2018-09-26T09:27:51.059Z,56.38
2018-09-26T09:28:50.794Z,56.67
2018-09-26T09:29:50.800Z,56.38
2018-09-26T09:30:50.786Z,56.18
2018-09-26T09:31:51.032Z,54.68
2018-09-26T09:32:51.648Z,54.11
2018-09-26T09:33:50.776Z,54.68
2018-09-26T09:34:51.032Z,54.78
2018-09-26T09:35:50.795Z,54.49
2018-09-26T09:36:51.033Z,53.56
2018-09-26T09:37:50.777Z,53.75
2018-09-26T09:38:51.030Z,53.94
2018-09-26T09:39:51.028Z,53.75
2018-09-26T09:40:50.763Z,53.28
2018-09-26T09:41:50.762Z,53.08
2018-09-26T09:42:50.764Z,53.02
2018-09-26T09:43:51.057Z,53.02
2018-09-26T09:44:50.762Z,51.97
2018-09-26T09:45:50.761Z,51.97
2018-09-26T09:46:51.082Z,51.97
2018-09-26T09:47:51.017Z,52.92
2018-09-26T09:48:51.014Z,52.34
2018-09-26T09:49:50.765Z,53.2
2018-09-26T09:50:50.752Z,53.11
2018-09-26T09:51:50.761Z,53.02
2018-09-26T09:52:50.756Z,52.25
2018-09-26T09:53:50.748Z,52.06
2018-09-26T09:54:51.019Z,52.83
2018-09-26T09:55:51.019Z,52.92
2018-09-26T09:56:51.015Z,53.02
2018-09-26T09:57:51.031Z,52.92
2018-09-26T09:58:51.012Z,53.18
2018-09-26T09:59:51.012Z,53.37
2018-09-26T10:00:51.000Z,53.18
2018-09-26T10:01:51.001Z,53.18
2018-09-26T10:02:51.248Z,53.47
2018-09-26T10:03:50.794Z,52.7
2018-09-26T10:04:50.738Z,52.8
2018-09-26T10:05:53.463Z,53.18
2018-09-26T10:06:50.993Z,52.89
2018-09-26T10:07:50.993Z,52.92
2018-09-26T10:08:51.270Z,52.92
2018-09-26T10:09:50.998Z,51.97
2018-09-26T10:10:50.735Z,51.48
2018-09-26T10:11:50.735Z,51.48
2018-09-26T10:12:50.829Z,51.58
2018-09-26T10:13:50.734Z,51.97
2018-09-26T10:14:51.001Z,50.81
2018-09-26T10:15:50.991Z,51.29
2018-09-26T10:16:50.726Z,52.92
2018-09-26T10:17:50.992Z,51.68
2018-09-26T10:18:50.747Z,51.48
2018-09-26T10:19:50.981Z,51.58
2018-09-26T10:20:50.980Z,50.62
2018-09-26T10:21:50.981Z,50.91
2018-09-26T10:22:50.984Z,50.65
2018-09-26T10:23:50.721Z,50.52
2018-09-26T10:24:50.990Z,50.81
2018-09-26T10:25:50.718Z,51.03
2018-09-26T10:26:50.973Z,50.72
2018-09-26T10:27:50.983Z,51.01
2018-09-26T10:28:50.713Z,50.65
2018-09-26T10:29:50.968Z,50.84
2018-09-26T10:30:50.715Z,51.03
2018-09-26T10:31:50.975Z,50.56
2018-09-26T10:32:50.977Z,50.93
2018-09-26T10:33:50.969Z,50.93
2018-09-26T10:34:51.026Z,50.36
2018-09-26T10:35:50.956Z,50.17
2018-09-26T10:36:50.996Z,50.07
2018-09-26T10:37:50.708Z,50.26
2018-09-26T10:38:50.708Z,49.91
2018-09-26T10:39:50.976Z,49.81
2018-09-26T10:40:51.124Z,50.38
2018-09-26T10:41:50.961Z,50.48
2018-09-26T10:42:50.710Z,49.07
2018-09-26T10:43:50.961Z,47.92
2018-09-26T10:44:50.960Z,48.21
2018-09-26T10:45:50.954Z,48.88
2018-09-26T10:46:50.712Z,48.75
2018-09-26T10:47:50.959Z,49.62
2018-09-26T10:48:50.734Z,49.14
2018-09-26T10:49:50.699Z,48.95
2018-09-26T10:50:50.962Z,48.95
2018-09-26T10:51:50.719Z,48.95
2018-09-26T10:52:50.699Z,49.24
2018-09-26T10:53:50.954Z,49.43
2018-09-26T10:54:50.955Z,49.52
2018-09-26T10:55:50.960Z,49.81
2018-09-26T10:56:51.159Z,49.43
2018-09-26T10:57:50.958Z,49.31
2018-09-26T10:58:50.966Z,49.6
2018-09-26T10:59:50.700Z,49.71
2018-09-26T11:00:50.700Z,49.52
2018-09-26T11:01:51.018Z,50.38
2018-09-26T11:02:50.973Z,50.2
2018-09-26T11:03:50.689Z,49.71
2018-09-26T11:04:50.699Z,49.52
2018-09-26T11:05:50.952Z,49.81
2018-09-26T11:06:50.692Z,49.14
2018-09-26T11:07:50.714Z,49.07
2018-09-26T11:08:50.953Z,48.59
2018-09-26T11:09:50.696Z,48.4
2018-09-26T11:10:50.951Z,48.78
2018-09-26T11:11:50.972Z,48.97
2018-09-26T11:12:50.971Z,48.21
2018-09-26T11:13:50.695Z,47.85
2018-09-26T11:14:50.691Z,48.13
2018-09-26T11:15:50.949Z,47.94
2018-09-26T11:16:50.701Z,47.17
2018-09-26T11:17:50.949Z,46.79
2018-09-26T11:18:51.111Z,46.89
2018-09-26T11:19:50.692Z,46.7
2018-09-26T11:20:50.693Z,47.08
2018-09-26T11:21:50.696Z,47.27
2018-09-26T11:22:50.949Z,47.08
2018-09-26T11:23:50.991Z,46.89
2018-09-26T11:24:50.691Z,47.08
2018-09-26T11:25:50.946Z,46.6
2018-09-26T11:26:50.692Z,46.79
2018-09-26T11:27:50.946Z,46.79
2018-09-26T11:28:50.950Z,46.89
2018-09-26T11:29:50.698Z,47.56
2018-09-26T11:30:50.691Z,47.75
2018-09-26T11:31:51.178Z,48.52
2018-09-26T11:32:50.950Z,47.97
2018-09-26T11:33:50.826Z,46.72
2018-09-26T11:34:50.948Z,46.43
2018-09-26T11:35:50.952Z,45.76
2018-09-26T11:36:50.983Z,45.95
2018-09-26T11:37:51.007Z,46.24
2018-09-26T11:38:50.720Z,46.43
2018-09-26T11:39:50.964Z,46.43
2018-09-26T11:40:50.950Z,45.86
2018-09-26T11:41:50.720Z,45.76
2018-09-26T11:42:50.952Z,45.76
2018-09-26T11:43:50.739Z,45.67
2018-09-26T11:44:50.821Z,46.72
2018-09-26T11:45:50.704Z,46.14
2018-09-26T11:46:50.953Z,47.3
2018-09-26T11:47:50.705Z,47.3
2018-09-26T11:48:50.707Z,46.91
2018-09-26T11:49:50.699Z,46.34
2018-09-26T11:50:50.955Z,46.53
2018-09-26T11:51:51.017Z,45.88
2018-09-26T11:52:50.956Z,45.98
2018-09-26T11:53:50.956Z,45.88
2018-09-26T11:54:50.954Z,45.68
2018-09-26T11:55:51.066Z,45.11
2018-09-26T11:56:50.697Z,44.34
2018-09-26T11:57:50.714Z,44.82
2018-09-26T11:58:50.955Z,45.21
2018-09-26T11:59:50.697Z,45.88
2018-09-26T12:00:50.693Z,45.21
2018-09-26T12:01:50.701Z,45.78
2018-09-26T12:02:50.691Z,46
2018-09-26T12:03:50.710Z,45.32
2018-09-26T12:04:50.984Z,44.46
2018-09-26T12:05:50.957Z,43.98
2018-09-26T12:06:50.709Z,44.56
2018-09-26T12:07:50.969Z,44.65
2018-09-26T12:08:50.953Z,45.04
2018-09-26T12:09:50.948Z,44.46
2018-09-26T12:10:50.696Z,44.08
2018-09-26T12:11:50.694Z,44.46
2018-09-26T12:12:50.966Z,43.79
2018-09-26T12:13:51.047Z,44.37
2018-09-26T12:14:50.967Z,44.87
2018-09-26T12:15:50.700Z,44.29
2018-09-26T12:16:50.981Z,43.14
2018-09-26T12:17:50.966Z,43.23
2018-09-26T12:18:50.711Z,43.71
2018-09-26T12:19:50.956Z,43.71
2018-09-26T12:20:50.962Z,44.48
2018-09-26T12:21:50.784Z,43.33
2018-09-26T12:22:50.955Z,43.23
2018-09-26T12:23:50.972Z,43.43
2018-09-26T12:24:50.707Z,43.91
2018-09-26T12:25:50.980Z,43.33
2018-09-26T12:26:50.713Z,44.48
2018-09-26T12:27:50.731Z,42.66
2018-09-26T12:28:50.976Z,43.81
2018-09-26T12:29:50.997Z,42.66
2018-09-26T12:30:50.974Z,42.85
2018-09-26T12:31:50.972Z,42.37
2018-09-26T12:32:50.718Z,42.94
2018-09-26T12:33:50.723Z,44.38
2018-09-26T12:34:51.146Z,42.66
2018-09-26T12:35:50.719Z,42.47
2018-09-26T12:36:50.714Z,43.52
2018-09-26T12:37:50.976Z,42.08
2018-09-26T12:38:50.985Z,42.37
2018-09-26T12:39:50.981Z,43.91
2018-09-26T12:40:50.723Z,43.81
2018-09-26T12:41:50.727Z,43.64
2018-09-26T12:42:51.145Z,43.84
2018-09-26T12:43:50.984Z,42.47
2018-09-26T12:44:50.989Z,42.39
2018-09-26T12:45:50.984Z,42.2
2018-09-26T12:46:50.987Z,42.87
2018-09-26T12:47:50.989Z,42.77
2018-09-26T12:48:50.728Z,42.68
2018-09-26T12:49:50.985Z,42.87
2018-09-26T12:50:50.987Z,41.53
2018-09-26T12:51:50.986Z,41.91
2018-09-26T12:52:50.989Z,42.58
2018-09-26T12:53:50.919Z,42.68
2018-09-26T12:54:50.987Z,42.87
2018-09-26T12:55:51.013Z,42.8